createdAt,value
2023-01-17T00:08:47.753Z,16.40
2023-01-17T00:19:12.223Z,20.20
2023-01-17T00:29:21.809Z,17.30
2023-01-17T00:39:28.537Z,15.40
2023-01-17T00:50:21.745Z,19.30
2023-01-17T01:01:08.066Z,14.50
2023-01-17T01:11:51.181Z,15.40
2023-01-17T01:23:15.568Z,10.60
2023-01-17T01:34:07.510Z,12.60
2023-01-17T01:44:51.402Z,13.70
2023-01-17T01:55:06.799Z,12.20
2023-01-17T02:05:43.885Z,11.00
2023-01-17T02:16:23.156Z,5.20
2023-01-17T02:26:52.684Z,3.10
2023-01-17T02:37:09.279Z,3.10
2023-01-17T02:47:46.994Z,2.80
2023-01-17T02:58:42.139Z,2.40
2023-01-17T03:08:57.166Z,2.40
2023-01-17T03:19:16.416Z,2.50
2023-01-17T03:29:40.814Z,2.60
2023-01-17T03:40:10.115Z,2.00
2023-01-17T03:50:14.364Z,2.20
2023-01-17T04:00:40.222Z,2.30
2023-01-17T04:11:07.317Z,2.10
2023-01-17T04:21:24.383Z,4.70
2023-01-17T04:31:31.226Z,3.80
2023-01-17T04:41:45.624Z,4.40
2023-01-17T04:51:52.783Z,3.00
2023-01-17T05:02:20.161Z,3.40
2023-01-17T05:12:41.268Z,3.20
2023-01-17T05:22:47.669Z,4.70
2023-01-17T05:33:02.819Z,4.00
2023-01-17T05:43:12.821Z,6.30
2023-01-17T05:53:20.599Z,6.90
2023-01-17T06:03:27.201Z,6.20
2023-01-17T06:13:38.952Z,5.70
2023-01-17T06:23:58.476Z,4.70
2023-01-17T06:34:05.933Z,4.10
2023-01-17T06:44:13.140Z,4.80
2023-01-17T06:54:20.470Z,5.80
2023-01-17T07:04:30.378Z,6.30
2023-01-17T07:14:45.017Z,6.60
2023-01-17T07:25:14.752Z,6.60
2023-01-17T07:35:42.285Z,7.00
2023-01-17T07:46:01.979Z,11.40
2023-01-17T07:56:29.467Z,11.80
2023-01-17T08:07:25.960Z,13.90
2023-01-17T08:18:01.367Z,13.40
2023-01-17T08:28:14.188Z,12.60
2023-01-17T08:39:08.726Z,14.10
2023-01-17T08:49:53.465Z,17.50
2023-01-17T09:00:28.847Z,16.00
2023-01-17T09:11:09.818Z,16.90
2023-01-17T09:21:37.861Z,16.70
2023-01-17T09:31:58.231Z,13.60
2023-01-17T09:42:05.128Z,13.00
2023-01-17T09:52:42.286Z,12.00
2023-01-17T10:03:46.637Z,10.30
2023-01-17T10:14:21.986Z,5.80
2023-01-17T10:25:09.149Z,5.80
2023-01-17T10:35:48.437Z,5.40
2023-01-17T10:46:41.751Z,9.90
2023-01-17T10:57:19.359Z,5.10
2023-01-17T11:08:10.090Z,4.80
2023-01-17T11:19:15.257Z,3.50
2023-01-17T11:30:37.075Z,2.60
2023-01-17T11:41:20.998Z,6.80
2023-01-17T11:51:56.831Z,3.00
2023-01-17T12:03:16.386Z,3.40
2023-01-17T12:14:01.867Z,3.90
2023-01-17T12:24:17.169Z,3.30
2023-01-17T12:34:47.554Z,3.30
2023-01-17T12:45:20.550Z,2.50
2023-01-17T12:55:41.450Z,2.90
2023-01-17T13:05:53.791Z,3.00
2023-01-17T13:16:03.700Z,3.20
2023-01-17T13:26:21.065Z,3.00
2023-01-17T13:36:42.730Z,3.30
2023-01-17T13:47:26.622Z,3.40
2023-01-17T13:57:42.378Z,4.60
2023-01-17T14:08:13.466Z,4.30
2023-01-17T14:18:37.296Z,3.70
2023-01-17T14:28:56.261Z,3.20
2023-01-17T14:39:00.582Z,3.60
2023-01-17T14:49:25.721Z,2.80
2023-01-17T14:59:29.785Z,5.30
2023-01-17T15:09:37.436Z,4.20
2023-01-17T15:19:44.382Z,4.10
2023-01-17T15:29:53.167Z,12.40
2023-01-17T15:40:18.322Z,27.60
2023-01-17T15:50:32.340Z,24.50
2023-01-17T16:00:45.521Z,24.20
2023-01-17T16:10:55.401Z,33.80
2023-01-17T16:21:02.408Z,30.90
2023-01-17T16:31:08.552Z,51.30
2023-01-17T16:41:13.492Z,47.30
2023-01-17T16:51:17.649Z,44.90
2023-01-17T17:01:23.348Z,51.10
2023-01-17T17:11:27.745Z,49.20
2023-01-17T17:21:36.326Z,42.60
2023-01-17T17:31:46.603Z,54.40
2023-01-17T17:41:53.987Z,49.20
2023-01-17T17:52:21.582Z,51.00
2023-01-17T18:02:27.344Z,51.60
2023-01-17T18:12:32.382Z,52.70
2023-01-17T18:22:37.653Z,50.40
2023-01-17T18:32:52.326Z,54.00
2023-01-17T18:42:59.356Z,64.70
2023-01-17T18:53:07.145Z,67.80
2023-01-17T19:03:19.866Z,57.10
2023-01-17T19:13:28.589Z,127.20
2023-01-17T19:23:37.764Z,66.50
2023-01-17T19:33:45.477Z,70.50
2023-01-17T19:44:05.823Z,54.80
2023-01-17T19:54:11.562Z,61.30
2023-01-17T20:04:19.557Z,61.90
2023-01-17T20:14:28.015Z,63.00
2023-01-17T20:24:34.007Z,69.20
2023-01-17T20:34:39.031Z,78.50
2023-01-17T20:44:44.208Z,78.30
2023-01-17T20:54:52.644Z,77.60
2023-01-17T21:04:59.088Z,76.90
2023-01-17T21:15:03.128Z,85.50
2023-01-17T21:25:08.076Z,72.00
2023-01-17T21:35:12.527Z,70.80
2023-01-17T21:45:16.557Z,74.00
2023-01-17T21:55:39.436Z,54.80
2023-01-17T22:05:43.437Z,53.30
2023-01-17T22:15:58.992Z,49.10
2023-01-17T22:26:07.655Z,52.30
2023-01-17T22:36:16.438Z,51.90
2023-01-17T22:46:26.293Z,51.80
2023-01-17T22:56:32.833Z,54.50
2023-01-17T23:06:39.487Z,58.40
2023-01-17T23:17:08.621Z,57.10
2023-01-17T23:27:50.543Z,36.20
2023-01-17T23:38:13.409Z,12.00
2023-01-17T23:48:17.521Z,5.50
2023-01-17T23:58:40.612Z,3.30
